Time;durP1;ratioP1;P1;durP2;ratioP2;P2;SDS_P1;SDS_P2;PMS_P1;PMS_P2;Temp;Humidity;BMP_temperature;BMP_pressure;BME280_temperature;BME280_humidity;BME280_pressure;Samples;Min_cycle;Max_cycle;Signal;HPM_P1;HPM_P2
2021/06/21 00:02:22;;;;;;;0.20;0.10;;;18.60;78.60;;;;;;5032338;28;20090;-76
2021/06/21 00:04:51;;;;;;;0.25;0.20;;;18.60;78.90;;;;;;5022672;28;20037;-76
2021/06/21 00:07:17;;;;;;;0.20;0.15;;;18.40;79.50;;;;;;5014286;28;20042;-76
2021/06/21 00:09:43;;;;;;;0.13;0.10;;;18.50;79.30;;;;;;5015474;28;20026;-76
2021/06/21 00:12:10;;;;;;;0.30;0.20;;;18.40;79.50;;;;;;5015522;28;20053;-76
2021/06/21 00:14:37;;;;;;;0.20;0.20;;;18.50;79.50;;;;;;5016064;28;20120;-75
2021/06/21 00:17:03;;;;;;;0.20;0.20;;;18.50;79.60;;;;;;5036151;28;20054;-75
2021/06/21 00:19:28;;;;;;;0.17;0.17;;;18.50;79.60;;;;;;5030854;28;20029;-75
2021/06/21 00:21:55;;;;;;;0.20;0.10;;;18.40;79.60;;;;;;5016689;28;20038;-76
2021/06/21 00:24:21;;;;;;;0.30;0.20;;;18.40;79.50;;;;;;5027462;28;20065;-76
2021/06/21 00:26:48;;;;;;;0.28;0.20;;;18.30;79.40;;;;;;5016358;28;20049;-76
2021/06/21 00:29:14;;;;;;;0.13;0.10;;;18.40;79.50;;;;;;5016345;28;20022;-75
2021/06/21 00:31:40;;;;;;;0.25;0.17;;;18.30;79.70;;;;;;5016598;28;20405;-75
2021/06/21 00:34:06;;;;;;;0.40;0.20;;;18.30;80.00;;;;;;5027905;28;20021;-76
2021/06/21 00:36:32;;;;;;;0.30;0.20;;;18.10;80.40;;;;;;5056093;28;20372;-75
2021/06/21 00:38:58;;;;;;;0.43;0.20;;;18.10;80.60;;;;;;5036873;28;20071;-76
2021/06/21 00:41:24;;;;;;;0.15;0.13;;;18.20;80.50;;;;;;5014541;28;20037;-76
2021/06/21 00:43:50;;;;;;;0.20;0.20;;;18.20;80.20;;;;;;5015031;28;20026;-76
2021/06/21 00:46:18;;;;;;;0.20;0.20;;;18.20;80.10;;;;;;5016238;28;20026;-76
2021/06/21 00:48:43;;;;;;;0.25;0.17;;;18.10;80.20;;;;;;5016802;28;20018;-76
2021/06/21 00:51:09;;;;;;;0.35;0.20;;;18.20;80.30;;;;;;5015554;28;20196;-76
2021/06/21 00:53:36;;;;;;;0.20;0.20;;;18.20;80.20;;;;;;5015171;28;20030;-76
2021/06/21 00:56:03;;;;;;;0.20;0.20;;;18.10;80.60;;;;;;5015172;28;20033;-75
2021/06/21 00:58:29;;;;;;;0.50;0.20;;;18.20;80.40;;;;;;5017808;28;20041;-76
2021/06/21 01:00:54;;;;;;;0.20;0.20;;;18.00;80.50;;;;;;5024132;28;20037;-76
2021/06/21 01:03:20;;;;;;;0.50;0.40;;;17.90;81.20;;;;;;5016050;28;20022;-75
2021/06/21 01:05:46;;;;;;;0.40;0.20;;;17.80;81.20;;;;;;5015321;28;20092;-76
2021/06/21 01:08:12;;;;;;;0.30;0.20;;;17.80;81.20;;;;;;5015687;28;20037;-76
2021/06/21 01:10:41;;;;;;;0.20;0.20;;;17.80;81.20;;;;;;5016088;28;20076;-75
2021/06/21 01:13:30;;;;;;;0.10;0.10;;;17.90;81.00;;;;;;5015646;28;20026;-76
2021/06/21 01:16:03;;;;;;;0.10;0.10;;;17.80;81.00;;;;;;5015444;28;20038;-76
2021/06/21 01:18:32;;;;;;;0.17;0.10;;;17.80;80.80;;;;;;5013624;28;20576;-76
2021/06/21 01:21:07;;;;;;;0.45;0.25;;;17.80;81.00;;;;;;5013853;28;20029;-75
2021/06/21 01:24:00;;;;;;;0.40;0.20;;;17.80;80.90;;;;;;5021087;28;20025;-76
2021/06/21 01:26:54;;;;;;;0.20;0.20;;;17.90;80.90;;;;;;5015308;28;20045;-76
2021/06/21 01:29:23;;;;;;;0.38;0.20;;;18.00;80.20;;;;;;5015183;28;20109;-76
2021/06/21 01:32:03;;;;;;;0.20;0.20;;;17.90;80.20;;;;;;5015344;28;20030;-75
2021/06/21 01:34:30;;;;;;;0.20;0.20;;;17.90;80.10;;;;;;5032788;28;20472;-76
2021/06/21 01:37:00;;;;;;;0.20;0.20;;;17.90;80.10;;;;;;5055158;28;20057;-76
2021/06/21 01:39:29;;;;;;;0.20;0.10;;;18.00;80.00;;;;;;5054661;28;20025;-76
2021/06/21 01:42:07;;;;;;;0.28;0.20;;;18.00;79.40;;;;;;5047776;28;20044;-76
2021/06/21 01:44:36;;;;;;;0.30;0.20;;;17.80;79.70;;;;;;5013666;28;20022;-75
2021/06/21 01:47:04;;;;;;;0.25;0.20;;;17.70;80.10;;;;;;5014587;28;20034;-76
2021/06/21 01:49:35;;;;;;;0.32;0.17;;;17.80;79.80;;;;;;5014973;28;20021;-75
2021/06/21 01:52:02;;;;;;;0.22;0.15;;;17.70;79.60;;;;;;5014773;28;20033;-75
2021/06/21 01:54:32;;;;;;;0.52;0.30;;;17.80;79.10;;;;;;5014780;28;20032;-76
2021/06/21 01:56:58;;;;;;;0.47;0.22;;;17.80;78.40;;;;;;5014916;28;20393;-75
2021/06/21 01:59:28;;;;;;;0.28;0.20;;;17.90;78.30;;;;;;5024065;28;20044;-75
2021/06/21 02:01:59;;;;;;;0.40;0.20;;;17.90;77.40;;;;;;5025814;28;20431;-76
2021/06/21 02:04:28;;;;;;;0.52;0.30;;;18.00;76.60;;;;;;5015440;28;20057;-75
2021/06/21 02:06:55;;;;;;;0.17;0.17;;;17.90;76.80;;;;;;5013577;28;20061;-75
2021/06/21 02:09:23;;;;;;;0.20;0.20;;;17.80;76.40;;;;;;5013404;28;20030;-75
2021/06/21 02:11:51;;;;;;;0.20;0.20;;;17.80;76.20;;;;;;5014878;28;20022;-76
2021/06/21 02:14:27;;;;;;;0.30;0.20;;;17.70;76.70;;;;;;5015666;28;20036;-76
2021/06/21 02:16:57;;;;;;;0.25;0.20;;;17.80;76.40;;;;;;5014078;28;20029;-75
2021/06/21 02:19:26;;;;;;;0.25;0.20;;;17.80;76.30;;;;;;5015207;28;20109;-76
2021/06/21 02:21:53;;;;;;;0.30;0.20;;;17.80;76.20;;;;;;5015487;28;20040;-75
2021/06/21 02:24:18;;;;;;;0.20;0.20;;;17.80;76.20;;;;;;5016930;28;20038;-75
2021/06/21 02:26:46;;;;;;;0.32;0.20;;;17.70;76.40;;;;;;5014560;28;20105;-75
2021/06/21 02:29:17;;;;;;;0.38;0.30;;;17.70;76.70;;;;;;5014694;28;20025;-75
2021/06/21 02:31:44;;;;;;;0.30;0.25;;;17.50;77.20;;;;;;5014723;28;20045;-75
2021/06/21 02:34:10;;;;;;;0.35;0.20;;;17.50;77.20;;;;;;5027595;28;20033;-75
2021/06/21 02:36:36;;;;;;;0.40;0.20;;;17.30;77.50;;;;;;5043504;28;20103;-75
2021/06/21 02:39:04;;;;;;;0.22;0.20;;;17.30;77.40;;;;;;5014351;28;20132;-75
2021/06/21 02:41:30;;;;;;;0.47;0.28;;;17.40;77.30;;;;;;5014050;28;20054;-75
2021/06/21 02:43:55;;;;;;;0.32;0.20;;;17.20;78.00;;;;;;5015209;28;20026;-76
2021/06/21 02:46:21;;;;;;;0.22;0.20;;;17.20;78.30;;;;;;5013711;28;20160;-75
2021/06/21 02:48:47;;;;;;;0.38;0.17;;;17.20;77.90;;;;;;5014212;28;20058;-75
2021/06/21 02:51:19;;;;;;;0.32;0.20;;;17.30;77.70;;;;;;5014430;28;20028;-76
2021/06/21 02:54:01;;;;;;;0.22;0.20;;;17.20;78.10;;;;;;5015394;28;20021;-75
2021/06/21 02:56:32;;;;;;;0.25;0.20;;;17.20;78.00;;;;;;5014929;28;20079;-76
2021/06/21 02:59:05;;;;;;;0.20;0.20;;;17.20;78.00;;;;;;5021082;28;20029;-75
2021/06/21 03:01:31;;;;;;;0.45;0.25;;;17.00;78.20;;;;;;5021397;28;20457;-76
2021/06/21 03:03:59;;;;;;;0.40;0.22;;;17.20;77.70;;;;;;5013726;28;20026;-76
2021/06/21 03:06:26;;;;;;;0.38;0.20;;;17.20;77.20;;;;;;5014962;28;20057;-75
2021/06/21 03:08:54;;;;;;;0.70;0.30;;;17.20;77.50;;;;;;5013750;28;20037;-76
2021/06/21 03:11:20;;;;;;;0.70;0.30;;;17.20;77.30;;;;;;5014272;28;20088;-75
2021/06/21 03:13:52;;;;;;;0.30;0.20;;;17.20;77.00;;;;;;5014729;28;20492;-76
2021/06/21 03:16:19;;;;;;;0.40;0.30;;;17.30;76.70;;;;;;5015324;28;20353;-76
2021/06/21 03:18:47;;;;;;;0.47;0.30;;;17.20;76.80;;;;;;5014237;28;20848;-76
2021/06/21 03:21:16;;;;;;;0.30;0.30;;;17.10;77.00;;;;;;5014480;28;20053;-75
2021/06/21 03:23:42;;;;;;;0.22;0.20;;;17.00;77.70;;;;;;5022002;28;20080;-75
2021/06/21 03:26:07;;;;;;;0.40;0.30;;;17.00;77.40;;;;;;5033122;28;20419;-75
2021/06/21 03:28:33;;;;;;;0.30;0.20;;;17.00;77.30;;;;;;5033860;28;20022;-76
2021/06/21 03:31:04;;;;;;;0.30;0.20;;;17.00;77.30;;;;;;5038263;28;20032;-75
2021/06/21 03:33:31;;;;;;;0.65;0.20;;;16.80;78.30;;;;;;5030851;28;20033;-76
2021/06/21 03:35:57;;;;;;;0.63;0.30;;;16.80;78.20;;;;;;5014024;28;20021;-75
2021/06/21 03:38:26;;;;;;;0.40;0.20;;;16.90;78.00;;;;;;5013088;28;20034;-76
2021/06/21 03:40:55;;;;;;;0.40;0.20;;;17.00;77.60;;;;;;5016181;28;20025;-75
2021/06/21 03:43:22;;;;;;;0.70;0.30;;;17.10;77.30;;;;;;5031910;28;20033;-75
2021/06/21 03:45:50;;;;;;;0.40;0.30;;;17.20;77.10;;;;;;5058571;28;20021;-75
2021/06/21 03:48:17;;;;;;;0.60;0.30;;;17.20;77.10;;;;;;5040327;28;20064;-75
2021/06/21 03:50:43;;;;;;;0.52;0.30;;;17.20;77.00;;;;;;5017677;28;20580;-75
2021/06/21 03:53:09;;;;;;;0.28;0.20;;;17.20;77.40;;;;;;5018103;28;20057;-76
2021/06/21 03:55:35;;;;;;;0.32;0.20;;;17.20;77.80;;;;;;5018513;28;20062;-75
2021/06/21 03:58:01;;;;;;;0.40;0.25;;;17.00;78.50;;;;;;5030624;28;20040;-76
2021/06/21 04:00:29;;;;;;;0.25;0.20;;;16.90;79.00;;;;;;5035565;28;20037;-75
2021/06/21 04:02:57;;;;;;;0.20;0.20;;;17.00;78.70;;;;;;5018057;28;20075;-75
2021/06/21 04:05:24;;;;;;;0.60;0.30;;;17.00;78.50;;;;;;5018256;28;20480;-76
2021/06/21 04:07:50;;;;;;;0.32;0.20;;;17.00;78.50;;;;;;5017984;28;20080;-76
2021/06/21 04:10:19;;;;;;;0.75;0.25;;;16.90;78.70;;;;;;5015979;28;20030;-76
2021/06/21 04:12:46;;;;;;;0.55;0.30;;;16.90;79.00;;;;;;5016836;28;20033;-76
2021/06/21 04:15:14;;;;;;;0.40;0.28;;;16.80;79.30;;;;;;5018250;28;20052;-75
2021/06/21 04:17:41;;;;;;;0.38;0.30;;;16.80;79.30;;;;;;5017342;28;20060;-76
2021/06/21 04:20:09;;;;;;;0.30;0.28;;;16.80;79.70;;;;;;5033741;28;20029;-76
2021/06/21 04:22:35;;;;;;;0.40;0.30;;;16.80;79.10;;;;;;5057536;28;20036;-76
2021/06/21 04:25:01;;;;;;;0.47;0.20;;;16.90;78.80;;;;;;5031078;28;20098;-76
2021/06/21 04:27:27;;;;;;;0.57;0.30;;;16.90;78.90;;;;;;5018120;28;20025;-76
2021/06/21 04:29:52;;;;;;;0.43;0.28;;;16.90;78.90;;;;;;5017348;28;20049;-75
2021/06/21 04:32:18;;;;;;;0.80;0.40;;;16.80;79.20;;;;;;5017302;28;20049;-76
2021/06/21 04:34:44;;;;;;;0.32;0.20;;;16.70;79.40;;;;;;5016459;28;20048;-75
2021/06/21 04:37:09;;;;;;;0.60;0.30;;;16.80;79.50;;;;;;5015808;28;20125;-76
2021/06/21 04:39:35;;;;;;;0.60;0.40;;;16.80;79.70;;;;;;5016895;28;20106;-75
2021/06/21 04:42:00;;;;;;;0.50;0.30;;;16.80;79.60;;;;;;5016408;28;20092;-76
2021/06/21 04:44:26;;;;;;;0.50;0.32;;;16.80;79.30;;;;;;5017561;28;20045;-75
2021/06/21 04:46:52;;;;;;;0.50;0.40;;;16.80;79.20;;;;;;5015297;28;20049;-76
2021/06/21 04:49:17;;;;;;;0.73;0.40;;;16.90;79.40;;;;;;5017072;28;20369;-76
2021/06/21 04:51:45;;;;;;;0.80;0.55;;;16.80;79.60;;;;;;5016425;28;20049;-75
2021/06/21 04:54:11;;;;;;;0.50;0.30;;;16.80;79.60;;;;;;5016634;28;20543;-76
2021/06/21 04:56:37;;;;;;;0.30;0.25;;;16.70;79.70;;;;;;5017483;28;20022;-75
2021/06/21 04:59:04;;;;;;;0.45;0.30;;;16.60;80.20;;;;;;5022634;28;20518;-75
2021/06/21 05:01:30;;;;;;;0.47;0.30;;;16.60;80.30;;;;;;5035987;28;20821;-76
2021/06/21 05:04:00;;;;;;;0.32;0.22;;;16.70;80.00;;;;;;5018960;28;20496;-76
2021/06/21 05:06:26;;;;;;;1.10;0.37;;;16.80;79.90;;;;;;5016025;28;20092;-77
2021/06/21 05:08:52;;;;;;;0.55;0.30;;;16.80;79.80;;;;;;5014828;28;20056;-81
2021/06/21 05:11:17;;;;;;;0.50;0.30;;;16.80;79.60;;;;;;5014580;28;20033;-78
2021/06/21 05:13:43;;;;;;;0.65;0.40;;;16.80;79.70;;;;;;5016160;28;20026;-77
2021/06/21 05:16:10;;;;;;;0.65;0.40;;;16.90;79.20;;;;;;5016090;28;20026;-77
2021/06/21 05:18:36;;;;;;;0.50;0.30;;;17.00;78.90;;;;;;5015514;28;20045;-77
2021/06/21 05:21:02;;;;;;;0.60;0.30;;;17.00;78.80;;;;;;5036953;28;20030;-77
2021/06/21 05:23:27;;;;;;;0.50;0.30;;;17.00;78.60;;;;;;5021373;28;20029;-79
2021/06/21 05:25:53;;;;;;;0.40;0.30;;;17.00;78.60;;;;;;5021966;28;20182;-79
2021/06/21 05:28:18;;;;;;;0.95;0.30;;;16.90;79.00;;;;;;5015908;28;20105;-79
2021/06/21 05:30:44;;;;;;;0.40;0.30;;;17.00;78.80;;;;;;5014444;28;20080;-80
2021/06/21 05:33:10;;;;;;;0.47;0.30;;;17.00;78.70;;;;;;5015608;28;20038;-82
2021/06/21 05:35:35;;;;;;;0.45;0.30;;;17.00;78.90;;;;;;5015530;28;20089;-82
2021/06/21 05:38:01;;;;;;;0.63;0.30;;;17.00;78.80;;;;;;5015842;28;20105;-86
2021/06/21 05:40:27;;;;;;;0.45;0.20;;;17.00;79.10;;;;;;5014398;28;20033;-78
2021/06/21 05:42:53;;;;;;;0.50;0.30;;;17.00;78.80;;;;;;5015510;28;20066;-76
2021/06/21 05:45:19;;;;;;;0.40;0.30;;;17.10;78.80;;;;;;5014538;28;20029;-77
2021/06/21 05:47:45;;;;;;;0.60;0.30;;;17.10;78.90;;;;;;5041698;28;20099;-77
2021/06/21 05:50:11;;;;;;;0.80;0.40;;;17.20;78.60;;;;;;5017837;28;20026;-78
2021/06/21 05:52:37;;;;;;;0.73;0.30;;;17.20;78.80;;;;;;5033228;28;20036;-78
2021/06/21 05:55:04;;;;;;;0.63;0.30;;;17.30;78.30;;;;;;5029833;28;20021;-78
2021/06/21 05:57:30;;;;;;;0.60;0.30;;;17.50;77.80;;;;;;5029486;28;20373;-78
2021/06/21 05:59:56;;;;;;;0.68;0.38;;;17.60;77.30;;;;;;5020704;28;20076;-78
2021/06/21 06:02:22;;;;;;;0.60;0.40;;;17.60;77.70;;;;;;5032054;28;20087;-76
2021/06/21 06:04:47;;;;;;;0.65;0.30;;;17.70;77.50;;;;;;5029255;28;20137;-78
2021/06/21 06:07:13;;;;;;;0.63;0.20;;;18.00;77.30;;;;;;5014058;28;20046;-82
2021/06/21 06:09:39;;;;;;;0.30;0.20;;;18.10;76.10;;;;;;5014479;28;20022;-76
2021/06/21 06:12:05;;;;;;;1.05;0.30;;;18.20;76.10;;;;;;5015025;28;20030;-76
2021/06/21 06:14:32;;;;;;;0.28;0.20;;;18.30;76.20;;;;;;5014029;28;20036;-76
2021/06/21 06:16:58;;;;;;;0.60;0.25;;;18.40;76.20;;;;;;5021324;28;20029;-76
2021/06/21 06:19:24;;;;;;;0.60;0.28;;;18.70;75.40;;;;;;5024918;28;20453;-76
2021/06/21 06:21:50;;;;;;;0.40;0.25;;;18.60;74.60;;;;;;5054164;28;20067;-75
2021/06/21 06:24:15;;;;;;;0.73;0.30;;;18.70;74.50;;;;;;5042041;28;20021;-76
2021/06/21 06:26:43;;;;;;;0.60;0.30;;;18.80;74.60;;;;;;5026803;28;20046;-76
2021/06/21 06:29:12;;;;;;;0.50;0.30;;;18.90;74.50;;;;;;5029060;28;20021;-76
2021/06/21 06:31:37;;;;;;;0.50;0.30;;;19.00;73.70;;;;;;5029789;28;20061;-75
2021/06/21 06:34:04;;;;;;;0.60;0.30;;;18.90;73.50;;;;;;5031977;28;20060;-75
2021/06/21 06:36:29;;;;;;;0.60;0.30;;;18.90;73.40;;;;;;5027432;28;20120;-75
2021/06/21 06:38:55;;;;;;;0.38;0.20;;;18.90;73.30;;;;;;5015451;28;20065;-76
2021/06/21 06:41:21;;;;;;;0.40;0.30;;;19.00;73.00;;;;;;5014110;28;20076;-76
2021/06/21 06:43:47;;;;;;;0.60;0.35;;;18.90;73.90;;;;;;5014411;28;20114;-76
2021/06/21 06:46:13;;;;;;;0.47;0.22;;;18.90;74.00;;;;;;5014856;28;20053;-76
2021/06/21 06:48:39;;;;;;;0.57;0.30;;;19.00;73.40;;;;;;5015385;28;20029;-75
2021/06/21 06:51:05;;;;;;;0.30;0.20;;;18.90;73.40;;;;;;5015268;28;20156;-76
2021/06/21 06:59:19;;;;;;;1.10;0.30;;;19.20;72.70;;;;;;5011910;28;20154;-76
2021/06/21 07:01:45;;;;;;;0.90;0.20;;;19.30;72.40;;;;;;5024890;28;20033;-76
2021/06/21 07:04:11;;;;;;;0.63;0.30;;;19.50;71.90;;;;;;5014989;28;20014;-75
2021/06/21 07:06:37;;;;;;;0.40;0.20;;;19.60;71.00;;;;;;5014991;28;20056;-75
2021/06/21 07:09:03;;;;;;;0.45;0.20;;;19.60;71.80;;;;;;5015012;28;20022;-76
2021/06/21 07:11:29;;;;;;;0.57;0.20;;;19.60;71.30;;;;;;5031287;28;20484;-76
2021/06/21 07:13:55;;;;;;;0.55;0.20;;;19.40;72.00;;;;;;5021561;28;20060;-76
2021/06/21 07:16:21;;;;;;;0.43;0.25;;;19.40;72.50;;;;;;5035182;28;20021;-75
2021/06/21 07:18:47;;;;;;;0.50;0.25;;;19.30;72.60;;;;;;5018634;28;20059;-75
2021/06/21 07:21:12;;;;;;;0.57;0.30;;;19.40;72.10;;;;;;5053527;28;20072;-76
2021/06/21 07:23:38;;;;;;;0.70;0.30;;;19.40;72.50;;;;;;5038481;28;20029;-75
2021/06/21 07:26:07;;;;;;;0.45;0.20;;;19.30;72.70;;;;;;5038567;28;20037;-76
2021/06/21 07:28:34;;;;;;;0.40;0.30;;;19.30;72.80;;;;;;5037847;28;20026;-76
2021/06/21 07:31:00;;;;;;;0.32;0.20;;;19.30;73.10;;;;;;5033123;28;20018;-76
2021/06/21 07:33:26;;;;;;;0.73;0.40;;;19.30;73.20;;;;;;5036727;28;20055;-75
2021/06/21 07:35:51;;;;;;;0.93;0.40;;;19.30;72.50;;;;;;5038727;28;20030;-76
2021/06/21 07:38:18;;;;;;;0.77;0.30;;;19.30;73.00;;;;;;5033247;28;20034;-75
2021/06/21 07:40:44;;;;;;;0.60;0.30;;;19.30;73.20;;;;;;5018684;28;20029;-76
2021/06/21 07:43:09;;;;;;;0.50;0.30;;;19.20;73.30;;;;;;5018824;28;20448;-76
2021/06/21 07:45:35;;;;;;;0.50;0.30;;;19.30;73.20;;;;;;5018643;28;20026;-76
2021/06/21 07:48:01;;;;;;;0.30;0.20;;;19.30;73.30;;;;;;5018379;28;20030;-76
2021/06/21 07:50:31;;;;;;;0.40;0.20;;;19.60;72.80;;;;;;5018555;28;20034;-76
2021/06/21 07:52:57;;;;;;;0.30;0.20;;;19.80;71.90;;;;;;5018244;28;20365;-75
2021/06/21 07:55:27;;;;;;;0.57;0.40;;;20.60;69.70;;;;;;5018423;28;20444;-76
2021/06/21 07:57:53;;;;;;;0.40;0.20;;;22.70;63.80;;;;;;5017097;28;20030;-76
2021/06/21 08:00:22;;;;;;;0.30;0.20;;;26.30;54.20;;;;;;5035247;28;20025;-73
2021/06/21 08:02:48;;;;;;;0.08;0.00;;;29.00;45.30;;;;;;5037951;28;20494;-73
2021/06/21 08:05:14;;;;;;;0.50;0.20;;;29.80;43.00;;;;;;5019895;28;20084;-73
2021/06/21 08:07:39;;;;;;;0.45;0.20;;;28.60;45.50;;;;;;5017608;28;20397;-73
2021/06/21 08:10:06;;;;;;;0.28;0.10;;;28.30;45.20;;;;;;5018275;28;20481;-73
2021/06/21 08:12:32;;;;;;;0.20;0.08;;;28.60;45.10;;;;;;5016418;28;20084;-73
2021/06/21 08:14:58;;;;;;;0.13;0.10;;;29.30;42.10;;;;;;5036166;28;20029;-73
2021/06/21 08:17:23;;;;;;;0.20;0.10;;;29.10;43.20;;;;;;5023370;28;20034;-73
2021/06/21 08:19:50;;;;;;;0.57;0.17;;;30.80;40.70;;;;;;5029400;28;20028;-75
2021/06/21 08:22:21;;;;;;;0.30;0.10;;;29.80;42.00;;;;;;5053274;28;20063;-77
2021/06/21 11:17:20;;;;;;;0.00;0.00;;;26.80;44.60;;;;;;5125314;27;20367;-74
2021/06/21 11:19:46;;;;;;;0.28;0.10;;;26.70;42.10;;;;;;5092643;28;20458;-75
2021/06/21 11:22:13;;;;;;;0.13;0.03;;;26.60;42.50;;;;;;5084163;28;20048;-74
2021/06/21 11:24:39;;;;;;;0.00;0.00;;;26.80;43.30;;;;;;5090580;28;20024;-75
2021/06/21 11:27:10;;;;;;;0.00;0.00;;;27.40;43.90;;;;;;5077889;28;20564;-75
2021/06/21 11:29:42;;;;;;;0.10;0.03;;;27.80;43.80;;;;;;5071134;28;20021;-75
2021/06/21 11:32:08;;;;;;;0.00;0.00;;;27.60;41.30;;;;;;5074536;28;20081;-75
2021/06/21 11:34:51;;;;;;;0.03;0.00;;;27.40;42.80;;;;;;5073137;28;20056;-74
2021/06/21 11:37:38;;;;;;;0.05;0.00;;;27.30;42.30;;;;;;5080232;28;20052;-75
2021/06/21 11:40:13;;;;;;;0.20;0.00;;;26.90;42.30;;;;;;5092243;28;20056;-80
2021/06/21 11:42:57;;;;;;;0.00;0.00;;;26.50;42.30;;;;;;5091031;28;20021;-80
2021/06/21 11:45:55;;;;;;;0.10;0.00;;;25.90;42.70;;;;;;5082823;28;20029;-77
2021/06/21 11:48:25;;;;;;;0.00;0.00;;;26.00;43.00;;;;;;5073017;28;20029;-75
2021/06/21 11:50:54;;;;;;;;;;;25.70;43.80;;;;;;5092096;28;20055;-75
2021/06/21 11:53:22;;;;;;;0.00;0.00;;;25.80;44.00;;;;;;5088520;28;19904;-75
2021/06/21 11:55:48;;;;;;;0.40;0.00;;;25.80;45.10;;;;;;5115691;28;20043;-76
2021/06/21 11:58:14;;;;;;;0.00;0.00;;;25.40;47.00;;;;;;5091480;28;20028;-76
2021/06/21 12:00:40;;;;;;;0.17;0.05;;;25.20;48.00;;;;;;5092338;28;20086;-76
2021/06/21 12:03:10;;;;;;;0.03;0.00;;;24.80;50.10;;;;;;5088630;28;20024;-75
2021/06/21 12:05:36;;;;;;;0.10;0.10;;;24.90;51.70;;;;;;5090470;28;20035;-74
2021/06/21 12:08:16;;;;;;;0.05;0.05;;;24.80;52.20;;;;;;5091165;28;20380;-74
2021/06/21 12:10:42;;;;;;;0.10;0.10;;;24.80;53.70;;;;;;5090563;28;20513;-74
2021/06/21 12:13:08;;;;;;;0.20;0.00;;;25.00;52.30;;;;;;5088365;28;20036;-75
2021/06/21 12:15:36;;;;;;;0.30;0.10;;;24.90;51.70;;;;;;5091001;28;20040;-75
2021/06/21 12:18:03;;;;;;;0.10;0.10;;;25.00;51.60;;;;;;5090798;28;20079;-73
2021/06/21 12:20:32;;;;;;;0.10;0.10;;;24.90;52.10;;;;;;5089853;28;20099;-74
2021/06/21 12:22:59;;;;;;;0.10;0.10;;;25.10;50.30;;;;;;5089893;28;20051;-74
2021/06/21 12:25:39;;;;;;;0.00;0.00;;;25.10;49.40;;;;;;5090694;28;20077;-74
2021/06/21 12:28:15;;;;;;;0.15;0.10;;;25.20;48.90;;;;;;5078054;28;20040;-74
2021/06/21 12:30:48;;;;;;;0.20;0.10;;;25.50;49.90;;;;;;5077391;28;20402;-75
2021/06/21 12:33:23;;;;;;;0.10;0.10;;;25.40;50.30;;;;;;5075175;28;20025;-75
2021/06/21 12:36:02;;;;;;;0.00;0.00;;;25.60;49.80;;;;;;5099037;28;20132;-75
2021/06/21 12:38:28;;;;;;;0.40;0.10;;;25.80;49.60;;;;;;5074145;28;20029;-75
2021/06/21 12:40:55;;;;;;;0.00;0.00;;;26.00;49.00;;;;;;5074934;28;20025;-74
2021/06/21 12:43:21;;;;;;;0.50;0.10;;;26.00;48.90;;;;;;5076980;28;20021;-74
2021/06/21 12:45:47;;;;;;;0.00;0.00;;;26.30;48.60;;;;;;5075431;28;20391;-74
2021/06/21 12:48:12;;;;;;;0.20;0.10;;;26.50;49.20;;;;;;5075793;28;20462;-74
2021/06/21 12:50:39;;;;;;;0.03;0.00;;;26.80;50.10;;;;;;5075567;28;20409;-75
2021/06/21 12:53:08;;;;;;;0.20;0.10;;;26.60;49.50;;;;;;5075042;28;20047;-76
2021/06/21 12:55:34;;;;;;;;;;;26.30;50.10;;;;;;5074740;28;20031;-76
2021/06/21 12:58:05;;;;;;;0.20;0.10;;;26.30;50.80;;;;;;5075672;28;19981;-76
2021/06/21 13:00:43;;;;;;;0.20;0.10;;;26.10;49.70;;;;;;5074820;28;20036;-76
2021/06/21 13:03:15;;;;;;;0.00;0.00;;;26.10;50.10;;;;;;5073253;28;20044;-76
2021/06/21 13:05:51;;;;;;;0.20;0.10;;;26.10;47.80;;;;;;5076290;28;20056;-76
2021/06/21 13:08:32;;;;;;;0.10;0.10;;;26.00;47.70;;;;;;5074686;28;20027;-76
2021/06/21 13:11:07;;;;;;;0.20;0.10;;;25.80;48.60;;;;;;5075101;28;20380;-75
2021/06/21 13:13:45;;;;;;;0.20;0.10;;;25.80;49.60;;;;;;5071301;28;20032;-76
2021/06/21 13:16:18;;;;;;;0.00;0.00;;;25.80;49.50;;;;;;5073760;28;20105;-76
2021/06/21 13:18:48;;;;;;;0.10;0.10;;;25.80;48.40;;;;;;5074264;28;20017;-76
2021/06/21 13:21:15;;;;;;;0.00;0.00;;;25.70;49.90;;;;;;5074940;28;20111;-76
2021/06/21 13:23:48;;;;;;;0.15;0.03;;;25.30;51.00;;;;;;5076126;28;20576;-76
2021/06/21 13:26:14;;;;;;;0.55;0.10;;;24.90;52.20;;;;;;5072307;28;20394;-75
2021/06/21 13:28:43;;;;;;;0.03;0.00;;;24.70;52.50;;;;;;5076466;28;20023;-76
2021/06/21 13:31:11;;;;;;;0.00;0.00;;;24.30;52.80;;;;;;5073723;28;20021;-75
2021/06/21 13:33:47;;;;;;;0.10;0.10;;;24.10;53.70;;;;;;5075955;28;20103;-76
2021/06/21 13:36:13;;;;;;;0.10;0.00;;;23.50;55.50;;;;;;5074377;28;20037;-76
2021/06/21 13:38:38;;;;;;;0.30;0.10;;;23.00;60.70;;;;;;5071678;28;20025;-76
2021/06/21 13:41:21;;;;;;;0.32;0.10;;;22.70;61.80;;;;;;5075000;28;20039;-75
2021/06/21 13:43:48;;;;;;;0.13;0.10;;;22.30;62.70;;;;;;5062759;28;20021;-75
2021/06/21 13:46:16;;;;;;;0.20;0.10;;;21.90;64.10;;;;;;5056141;28;20033;-76
2021/06/21 13:48:45;;;;;;;0.10;0.10;;;21.90;63.80;;;;;;5055656;28;20028;-76
2021/06/21 13:51:16;;;;;;;0.10;0.10;;;21.80;64.20;;;;;;5056311;28;20028;-75
2021/06/21 13:53:43;;;;;;;0.15;0.10;;;21.80;63.90;;;;;;5055593;28;20036;-75
2021/06/21 13:56:27;;;;;;;0.10;0.10;;;21.60;64.70;;;;;;5066607;28;20043;-75
2021/06/21 13:59:00;;;;;;;0.17;0.10;;;21.70;63.90;;;;;;5079767;28;20016;-76
2021/06/21 14:01:26;;;;;;;0.10;0.10;;;21.70;65.70;;;;;;5094698;28;20030;-76
2021/06/21 14:03:59;;;;;;;0.30;0.10;;;21.80;66.20;;;;;;5057182;28;20036;-75
2021/06/21 14:06:28;;;;;;;0.00;0.00;;;21.70;65.90;;;;;;5069055;28;20036;-75
2021/06/21 14:08:57;;;;;;;0.10;0.10;;;21.60;67.00;;;;;;5074228;28;20023;-75
2021/06/21 14:11:24;;;;;;;0.20;0.20;;;21.30;69.10;;;;;;5075881;28;20020;-76
2021/06/21 14:13:50;;;;;;;0.20;0.10;;;21.20;70.00;;;;;;5075354;28;20024;-75
2021/06/21 14:16:19;;;;;;;0.30;0.10;;;21.10;70.40;;;;;;5058197;28;20051;-76
2021/06/21 14:18:49;;;;;;;0.15;0.10;;;21.20;70.40;;;;;;5073847;28;20495;-75
2021/06/21 14:21:15;;;;;;;0.20;0.20;;;21.20;70.50;;;;;;5075518;28;20032;-75
2021/06/21 14:23:43;;;;;;;0.10;0.10;;;21.20;70.50;;;;;;5073716;28;20093;-75
2021/06/21 14:26:10;;;;;;;0.55;0.20;;;21.00;71.50;;;;;;5075300;28;20025;-75
2021/06/21 14:28:38;;;;;;;0.28;0.10;;;20.80;71.50;;;;;;5074954;28;20020;-75
2021/06/21 14:31:04;;;;;;;0.32;0.10;;;21.00;71.30;;;;;;5075191;28;20027;-75
2021/06/21 14:33:30;;;;;;;0.45;0.10;;;20.90;71.70;;;;;;5073727;28;20025;-75
2021/06/21 14:35:55;;;;;;;0.30;0.10;;;20.90;71.90;;;;;;5074997;28;20024;-75
2021/06/21 14:38:21;;;;;;;0.10;0.10;;;21.00;71.00;;;;;;5073721;28;20035;-74
2021/06/21 14:40:47;;;;;;;0.10;0.10;;;20.80;71.50;;;;;;5074341;28;20059;-76
2021/06/21 14:43:19;;;;;;;0.15;0.10;;;20.70;71.40;;;;;;5065260;28;20064;-76
2021/06/21 14:45:45;;;;;;;0.68;0.10;;;20.60;72.10;;;;;;5060497;28;20055;-75
2021/06/21 14:48:12;;;;;;;0.20;0.10;;;20.80;71.10;;;;;;5070581;28;20040;-74
2021/06/21 14:50:38;;;;;;;0.17;0.10;;;20.90;70.60;;;;;;5053434;28;20227;-74
2021/06/21 14:53:05;;;;;;;0.20;0.10;;;21.10;69.90;;;;;;5055229;28;20032;-74
2021/06/21 14:55:31;;;;;;;0.10;0.10;;;21.10;69.70;;;;;;5068759;28;20028;-76
2021/06/21 14:57:57;;;;;;;0.10;0.10;;;21.20;69.90;;;;;;5065201;28;20158;-77
2021/06/21 15:00:26;;;;;;;0.15;0.10;;;21.30;69.30;;;;;;5122965;27;20057;-79
2021/06/21 15:02:52;;;;;;;0.50;0.10;;;21.30;68.80;;;;;;5065778;28;20140;-76
2021/06/21 15:05:22;;;;;;;0.10;0.10;;;21.30;68.80;;;;;;5070738;28;20128;-78
2021/06/21 15:07:49;;;;;;;0.10;0.10;;;21.10;69.50;;;;;;5073345;28;20028;-77
2021/06/21 15:10:19;;;;;;;0.10;0.10;;;21.20;69.30;;;;;;5059576;28;20031;-78
2021/06/21 15:12:45;;;;;;;0.10;0.10;;;21.30;69.10;;;;;;5057620;28;20036;-78
2021/06/21 15:15:16;;;;;;;0.10;0.10;;;21.50;67.90;;;;;;5072736;28;20379;-78
2021/06/21 15:17:42;;;;;;;0.13;0.10;;;21.70;67.50;;;;;;5074162;28;20126;-78
2021/06/21 15:20:09;;;;;;;0.10;0.10;;;21.60;67.30;;;;;;5073943;28;20078;-79
2021/06/21 15:22:35;;;;;;;0.00;0.00;;;21.50;66.90;;;;;;5068212;28;20040;-79
2021/06/21 15:25:02;;;;;;;0.10;0.10;;;21.40;67.30;;;;;;5073959;28;20024;-77
2021/06/21 15:27:27;;;;;;;0.15;0.10;;;21.60;67.20;;;;;;5070313;28;20396;-77
2021/06/21 15:29:53;;;;;;;0.10;0.10;;;21.70;67.20;;;;;;5053427;28;20056;-78
2021/06/21 15:32:19;;;;;;;0.88;0.10;;;21.80;66.30;;;;;;5069209;28;20044;-78
2021/06/21 15:34:46;;;;;;;0.20;0.10;;;21.80;66.50;;;;;;5074233;28;20075;-78
2021/06/21 15:37:14;;;;;;;0.10;0.10;;;21.80;65.80;;;;;;5057723;28;20418;-79
2021/06/21 15:39:40;;;;;;;0.10;0.10;;;21.80;66.20;;;;;;5060787;28;20300;-79
2021/06/21 15:42:07;;;;;;;0.10;0.10;;;21.90;65.40;;;;;;5069690;28;20033;-78
2021/06/21 15:44:33;;;;;;;0.10;0.10;;;21.80;65.90;;;;;;5069177;28;20049;-79
2021/06/21 15:46:59;;;;;;;0.20;0.10;;;21.80;65.70;;;;;;5053301;28;20068;-78
2021/06/21 15:49:25;;;;;;;0.10;0.10;;;21.70;66.10;;;;;;5053187;28;20067;-78
2021/06/21 15:51:52;;;;;;;0.20;0.10;;;21.50;66.70;;;;;;5058467;28;20044;-77